Aviation Digital Data Service (ADDS)

Output produced by METARs form (1054 UTC 19 January 2019)
found at http://www.aviationweather.gov/metar/data/
 
EDAC 191020Z VRB02KT CAVOK M02/M07 Q1020
TAF EDAC 190952Z 1910/1915 VRB03KT CAVOK
       
EDMA 191020Z 13007KT 9999 BKN013 M03/M05 Q1016
TAF COR EDMA 190857Z 1909/1918 08007KT 9999 OVC010 
     BECMG 1910/1913 SCT015
       
EDVE 191020Z 10004KT CAVOK M01/M03 Q1020
TAF EDVE 190800Z 1909/1918 13003KT CAVOK
       
EDDW 191050Z VRB02KT CAVOK 01/M03 Q1019 R88/190094 NOSIG
TAF EDDW 190500Z 1906/2006 14003KT CAVOK 
     PROB30 
     TEMPO 1906/1909 3500 BCFG
       
ETSB 191020Z AUTO 10007KT 8000 // ////// M03/M05 Q1015 ///
ETHB 191020Z AUTO 19005KT 8000 // ////// 01/M05 Q1019 ///
ETHC 191020Z 12002KT 9999 FEW140 SCT290 00/M02 Q1020 BLACKBLU+
EDLW 191020Z 08004KT 040V120 CAVOK 00/M04 Q1018
TAF EDLW 190500Z 1906/2006 10005KT CAVOK
       
EDDC 191050Z 16004KT 120V190 CAVOK 00/M05 Q1019 NOSIG
TAF EDDC 190500Z 1906/2006 14006KT 9999 SCT040
       
EDDL 191050Z 15007KT 120V180 CAVOK 01/M04 Q1017 NOSIG
TAF EDDL 190500Z 1906/2012 14007KT CAVOK 
     BECMG 2002/2005 08005KT
       
EDDE 191050Z VRB02KT CAVOK M03/M06 Q1018 NOSIG
TAF EDDE 190500Z 1906/2006 19005KT CAVOK 
     BECMG 1908/1911 VRB03KT
       
ETHS 191020Z 21003KT 9999 FEW160 BKN260 00/M03 Q1020 BLU+
EDFH 191020Z 12008KT CAVOK M02/M05 Q1014
TAF EDFH 190500Z 1906/2006 13008KT CAVOK
       
EDDF 191050Z 06009KT CAVOK 00/M04 Q1018 NOSIG
TAF EDDF 190500Z 1906/2012 06005KT CAVOK
       
EDNY 191020Z 07004KT 9999 OVC016 M03/M05 Q1016
TAF EDNY 190500Z 1906/2006 04003KT CAVOK 
     PROB30 
     TEMPO 1906/1912 BKN012
       
ETHF 191048Z VRB02KT 4000 VCFG FEW004 BKN260 M04/M05 Q1019 BLACKGRN
ETIC 190956Z AUTO 07005KT 9999 CLR M03/M05 A3004 RMK AO2 SLP208 T10341051 $
EDDH 191050Z 15003KT CAVOK 01/M02 Q1020 R88/710295 NOSIG
TAF EDDH 190500Z 1906/2012 14003KT CAVOK 
     PROB30 
     TEMPO 1906/1909 3500 BCFG BKN010
       
EDHI 191020Z 00000KT 9000 NSC 01/M03 Q1020
TAF EDHI 190800Z 1909/1918 VRB03KT 8000 NSC
       
EDDV 191050Z 15004KT 120V180 CAVOK 02/M03 Q1019 NOSIG
TAF EDDV 190500Z 1906/2006 12004KT CAVOK
       
EDAH 191020Z 24007KT 210V270 9999 BKN006 M00/M01 Q1020
TAF EDAH 190800Z 1909/1918 24007KT 9999 BKN008 
     BECMG 1912/1914 BKN030 
     BECMG 1915/1917 VRB02KT
       
EDQM 191020Z VRB01KT CAVOK M04/M08 Q1017
TAF EDQM 190800Z 1909/1918 12006KT CAVOK
       
ETIH 190956Z AUTO 00000KT 9999 CLR M03/M04 A3003 RMK AO2 SLP204 T10301041 $
ETNH 191020Z 14003KT 7000 BKN200 M01/M02 Q1019 WHT
TAF AMD ETNH 190911Z 1909/1918 VRB03KT 4000 BR FEW150 
     BECMG 1909/1911 16005KT 9999 NSW SCT140 BY ETGL
       
ETSH 191020Z 13003KT 9999 BKN045 BKN240 M00/M03 Q1021 BLU
ETSI 191020Z 10007KT 9999 FEW018 M01/M07 Q1016 BLU+
EDSB 191020Z VRB02KT CAVOK 01/M03 Q1016
TAF EDSB 190500Z 1906/2006 VRB03KT CAVOK
       
EDVK 191020Z 10004KT CAVOK M03/M05 Q1018
TAF EDVK 190800Z 1909/1918 10006KT CAVOK
       
EDHK 191020Z 21005KT 4400 BR BKN004 M01/M01 Q1019
TAF EDHK 190800Z 1909/1918 22003KT 0200 FZFG OVC001 
     BECMG 1909/1912 6000 NSW FEW008 
     PROB30 
     TEMPO 1912/1918 4500 BR
       
EDDK 191050Z 12009KT 090V160 CAVOK 02/M05 Q1017 NOSIG
TAF EDDK 190500Z 1906/2012 10005KT CAVOK 
     BECMG 1908/1910 10010KT 
     BECMG 1915/1917 10005KT
       
ETNL 191050Z 22004KT 0700 R27////// FZFG VV000 M01/M01 Q1020 RED
TAF AMD ETNL 190720Z 1907/1918 24007KT 3000 BR BKN003 SCT250 
     TEMPO 1907/1911 24005KT 0600 FZFG BKN001 
     BECMG 1913/1915 18005KT 8000 NSW SCT012 BY ETGL
       
ETHL 191020Z 17005KT 5000 BR OVC005 M05/M07 Q1015 YLO
ETSL 191020Z AUTO 12005KT 9000 // ////// M05/M07 Q1015 ///
EDDP 191050Z 16004KT 130V190 CAVOK 00/M05 Q1020 R26R/150195 R26L/190195 NOSIG
TAF EDDP 190500Z 1906/2006 18005KT CAVOK 
     BECMG 1909/1912 10007KT
       
EDHL 191020Z VRB01KT 9999 FEW021 01/M04 Q1020
TAF EDHL 190800Z 1909/1918 VRB03KT 0700 FZFG FEW008 
     BECMG 1909/1911 7000 NSW 
     PROB30 
     TEMPO 1911/1918 4500 BR BKN008
       
EDFM 191020Z VRB02KT CAVOK 01/M05 Q1018
EDLN 191020Z 14005KT 060V170 CAVOK M00/M04 Q1017
TAF EDLN 190800Z 1909/1918 12008KT CAVOK
       
EDDM 191050Z 12006KT 080V160 9999 FEW009 BKN010 M03/M06 Q1016 BECMG SCT010
TAF COR EDDM 190536Z 1906/2012 09008KT CAVOK 
     TEMPO 1906/1911 BKN008 
     BECMG 1916/1918 09003KT 
     TEMPO 2003/2009 2000 BCFG
       
EDDG 191050Z 13005KT 080V180 CAVOK 00/M04 Q1018 NOSIG
TAF EDDG 190500Z 1906/2006 10003KT CAVOK
       
ETSN 191020Z 10009KT 9999 FEW017 M02/M06 Q1016 BLU+
TAF ETSN 190800Z 1909/1918 09008KT 9999 NSW FEW015 
     PROB30 1909/1911 09007KT 8000 NSW BKN012 BY ETGL
       
ETHN 191020Z 11010KT 9999 FEW150 SCT220 M02/M06 Q1015 BLU+
ETMN 191020Z 20004KT 9999 FEW130 00/M04 Q1019 BLU+
ETNN 191020Z AUTO 13006KT 7000 // ////// 00/M04 Q1017 ///
EDDN 191050Z 12005KT 090V160 CAVOK M00/M08 Q1017 NOSIG
TAF EDDN 190500Z 1906/2006 01004KT CAVOK
       
EDMO 191020Z VRB02KT 9000 FEW007 M05/M07 Q1015
EDLP 191020Z 06003KT 040V100 CAVOK M02/M06 Q1018
TAF EDLP 190500Z 1906/2006 12007KT CAVOK
       
ETAR 190956Z 05007KT 9999 FEW160 00/00 A3001 RMK AO2A SLP180 $
TAF ETAR 190958Z 1910/2016 10006KT 9999 FEW025 SCT120 QNH2990INS 
     BECMG 1922/1923 VRB06KT 9999 FEW025 SCT100 QNH2990INS TX03/1913Z
TNM05/2004Z
       
EDDR 191050Z 09006KT 060V120 CAVOK M00/M04 Q1015 NOSIG
TAF EDDR 190500Z 1906/2006 07005KT CAVOK
       
ETNS 191020Z AUTO 17003KT 9999 // ////// M00/M01 Q1019 ///
EDDB 191050Z 21005KT 9999 FEW019 02/M02 Q1021 NOSIG
TAF EDDB 190500Z 1906/2006 23005KT 9999 BKN020 
     BECMG 1912/1915 12004KT
       
EDTY 191020Z 11006KT 9999 FEW035 M02/M04 Q1016
TAF EDTY 190800Z 1909/1918 09006KT 9999 SCT020
       
EDOP 191020Z VRB01KT 6000 FEW005 M00/M02 Q1020
TAF EDOP 190851Z 1909/2006 VRB03KT 2000 BR OVC002 
     BECMG 1909/1912 7000 SCT025
       
EDGS 191020Z 13008KT CAVOK M04/M07 Q1015
TAF EDGS 190800Z 1909/1918 12008KT CAVOK
       
ETAD 190956Z AUTO 09006KT 9999 FEW150 M02/M05 A2998 RMK AO2 SLP168 T10181046 $
EDDS 191050Z 16006KT 120V190 9999 FEW012 BKN016 M03/M06 Q1015 TEMPO BKN014
TAF EDDS 190500Z 1906/2006 VRB03KT CAVOK
       
EDDT 191050Z 27003KT 9999 FEW015 02/M02 Q1020 NOSIG
TAF EDDT 190500Z 1906/2006 23005KT 9999 BKN020 
     BECMG 1912/1915 12004KT
       
EDXW 191020Z 21007KT CAVOK 03/M00 Q1018
TAF COR EDXW 190859Z 1909/1918 20006KT CAVOK
       
ETOU 190956Z AUTO 10010KT 9999 CLR 00/M07 A3007 RMK AO2 SLP193 T10031073 $
ETNT 191020Z AUTO 17004KT 7000 // ////// M00/M03 Q1019 ///
ETNW 191020Z 14002KT 9999 SCT130 BKN230 00/M03 Q1019 BLU+BLU+
TAF ETNW 190510Z 1906/2006 VRB03KT 9999 NSW BKN180 
     BECMG 1908/1910 12007KT 9999 NSW SCT150 
     BECMG 1921/1923 VRB03KT 4000 BR SCT015 BY ETGL